createdAt,value
2023-04-01T00:01:42.751Z,8.12
2023-04-01T00:04:09.314Z,8.09
2023-04-01T00:06:35.897Z,8.03
2023-04-01T00:09:02.470Z,7.95
2023-04-01T00:11:29.007Z,7.86
2023-04-01T00:13:55.551Z,7.80
2023-04-01T00:16:22.776Z,7.77
2023-04-01T00:18:51.401Z,7.71
2023-04-01T00:21:19.547Z,7.66
2023-04-01T00:23:46.118Z,7.59
2023-04-01T00:26:13.113Z,7.52
2023-04-01T00:28:40.503Z,7.43
2023-04-01T00:31:10.289Z,7.34
2023-04-01T00:33:37.800Z,7.27
2023-04-01T00:36:23.200Z,7.19
2023-04-01T00:38:50.682Z,7.09
2023-04-01T00:41:19.503Z,7.01
2023-04-01T00:43:49.740Z,6.92
2023-04-01T00:46:17.184Z,6.85
2023-04-01T00:48:54.164Z,6.77
2023-04-01T00:51:29.673Z,6.69
2023-04-01T00:53:58.924Z,6.58
2023-04-01T00:56:33.415Z,6.51
2023-04-01T00:59:07.656Z,6.48
2023-04-01T01:01:36.536Z,6.41
2023-04-01T01:04:03.628Z,6.36
2023-04-01T01:06:43.608Z,6.35
2023-04-01T01:10:01.457Z,6.35
2023-04-01T01:12:50.790Z,6.32
2023-04-01T01:15:25.662Z,6.30
2023-04-01T01:18:10.227Z,6.26
2023-04-01T01:20:55.221Z,6.24
2023-04-01T01:23:37.395Z,6.23
2023-04-01T01:26:31.629Z,6.23
2023-04-01T01:28:58.146Z,6.22
2023-04-01T01:31:46.897Z,6.21
2023-04-01T01:34:30.819Z,6.18
2023-04-01T01:37:02.524Z,6.14
2023-04-01T01:39:32.393Z,6.12
2023-04-01T01:42:04.148Z,6.12
2023-04-01T01:44:33.531Z,6.12
2023-04-01T01:47:01.094Z,6.09
2023-04-01T01:49:31.445Z,6.05
2023-04-01T01:51:58.688Z,6.00
2023-04-01T01:54:25.245Z,5.97
2023-04-01T01:57:02.146Z,5.91
2023-04-01T01:59:30.729Z,5.85
2023-04-01T02:01:58.271Z,5.81
2023-04-01T02:04:25.443Z,5.75
2023-04-01T02:07:03.536Z,5.70
2023-04-01T02:09:30.727Z,5.65
2023-04-01T02:12:00.740Z,5.60
2023-04-01T02:14:32.318Z,5.60
2023-04-01T02:17:03.344Z,5.63
2023-04-01T02:19:38.638Z,5.65
2023-04-01T02:22:09.836Z,5.63
2023-04-01T02:24:38.791Z,5.58
2023-04-01T02:27:05.571Z,5.54
2023-04-01T02:29:32.575Z,5.52
2023-04-01T02:32:04.242Z,5.55
2023-04-01T02:34:30.726Z,5.55
2023-04-01T02:36:58.251Z,5.57
2023-04-01T02:39:25.120Z,5.59
2023-04-01T02:41:51.512Z,5.60
2023-04-01T02:44:17.977Z,5.60
2023-04-01T02:46:45.015Z,5.60
2023-04-01T02:49:12.161Z,5.60
2023-04-01T02:51:38.642Z,5.60
2023-04-01T02:54:05.211Z,5.61
2023-04-01T02:56:31.643Z,5.64
2023-04-01T02:58:58.196Z,5.68
2023-04-01T03:01:24.931Z,5.68
2023-04-01T03:03:52.112Z,5.69
2023-04-01T03:06:19.053Z,5.70
2023-04-01T03:08:46.156Z,5.69
2023-04-01T03:11:12.954Z,5.68
2023-04-01T03:13:39.550Z,5.68
2023-04-01T03:16:07.573Z,5.71
2023-04-01T03:18:34.255Z,5.73
2023-04-01T03:21:21.824Z,5.77
2023-04-01T03:23:48.386Z,5.79
2023-04-01T03:26:15.734Z,5.79
2023-04-01T03:28:42.322Z,5.78
2023-04-01T03:31:09.164Z,5.77
2023-04-01T03:33:39.588Z,5.77
2023-04-01T03:36:06.737Z,5.78
2023-04-01T03:38:35.006Z,5.78
2023-04-01T03:41:01.849Z,5.78
2023-04-01T03:43:28.672Z,5.77
2023-04-01T03:45:56.245Z,5.75
2023-04-01T03:48:22.906Z,5.75
2023-04-01T03:50:49.752Z,5.76
2023-04-01T03:53:16.209Z,5.77
2023-04-01T03:55:42.725Z,5.78
2023-04-01T03:58:09.391Z,5.79
2023-04-01T04:00:35.879Z,5.80
2023-04-01T04:03:02.518Z,5.81
2023-04-01T04:05:29.329Z,5.81
2023-04-01T04:07:56.177Z,5.80
2023-04-01T04:10:22.677Z,5.79
2023-04-01T04:12:50.729Z,5.78
2023-04-01T04:15:17.345Z,5.78
2023-04-01T04:17:45.793Z,5.79
2023-04-01T04:20:12.727Z,5.80
2023-04-01T04:22:39.442Z,5.83
2023-04-01T04:25:06.667Z,5.85
2023-04-01T04:27:34.211Z,5.87
2023-04-01T04:30:00.795Z,5.90
2023-04-01T04:32:28.917Z,5.92
2023-04-01T04:34:58.198Z,5.95
2023-04-01T04:37:25.152Z,5.98
2023-04-01T04:39:51.705Z,6.01
2023-04-01T04:42:18.404Z,6.05
2023-04-01T04:44:45.023Z,6.07
2023-04-01T04:47:11.836Z,6.10
2023-04-01T04:49:38.626Z,6.15
2023-04-01T04:52:05.151Z,6.18
2023-04-01T04:54:31.715Z,6.24
2023-04-01T04:56:58.227Z,6.31
2023-04-01T04:59:25.022Z,6.38
2023-04-01T05:01:51.511Z,6.44
2023-04-01T05:04:18.176Z,6.52
2023-04-01T05:06:44.921Z,6.61
2023-04-01T05:09:11.565Z,6.71
2023-04-01T05:11:38.064Z,6.80
2023-04-01T05:14:04.516Z,6.87
2023-04-01T05:16:30.999Z,6.97
2023-04-01T05:18:57.841Z,7.04
2023-04-01T05:21:24.333Z,7.12
2023-04-01T05:23:50.823Z,7.26
2023-04-01T05:26:17.314Z,7.39
2023-04-01T05:28:43.796Z,7.49
2023-04-01T05:31:10.792Z,7.61
2023-04-01T05:33:37.409Z,7.76
2023-04-01T05:36:13.006Z,7.90
2023-04-01T05:38:40.347Z,8.21
2023-04-01T05:41:06.854Z,8.81
2023-04-01T05:43:33.327Z,9.56
2023-04-01T05:45:59.818Z,10.27
2023-04-01T05:48:26.279Z,10.75
2023-04-01T05:50:52.752Z,11.15
2023-04-01T05:53:19.726Z,11.43
2023-04-01T05:55:46.270Z,11.55
2023-04-01T05:58:12.977Z,11.47
2023-04-01T06:00:39.878Z,11.34
2023-04-01T06:03:06.591Z,11.31
2023-04-01T06:05:42.302Z,11.30
2023-04-01T06:08:19.715Z,11.34
2023-04-01T06:11:38.233Z,11.41
2023-04-01T06:14:16.960Z,11.94
2023-04-01T06:17:18.171Z,12.28
2023-04-01T06:20:22.075Z,12.73
2023-04-01T06:23:00.773Z,13.07
2023-04-01T06:25:45.951Z,13.45
2023-04-01T06:28:24.728Z,14.17
2023-04-01T06:31:07.528Z,14.78
2023-04-01T06:33:40.109Z,15.32
2023-04-01T06:36:43.605Z,15.17
2023-04-01T06:39:13.398Z,14.68
2023-04-01T06:41:39.886Z,14.41
2023-04-01T06:44:15.278Z,14.21
2023-04-01T06:46:56.214Z,13.93
2023-04-01T06:49:22.562Z,13.58
2023-04-01T06:52:16.871Z,13.28
2023-04-01T06:54:48.536Z,13.01
2023-04-01T06:57:30.144Z,12.83
2023-04-01T06:59:59.951Z,12.85
2023-04-01T07:02:43.945Z,12.95
2023-04-01T07:05:13.008Z,12.92
2023-04-01T07:07:47.448Z,12.86
2023-04-01T07:10:19.178Z,12.70
2023-04-01T07:12:52.675Z,12.66
2023-04-01T07:16:17.948Z,12.58
2023-04-01T07:19:03.094Z,12.53
2023-04-01T07:21:49.744Z,12.64
2023-04-01T07:24:26.615Z,12.60
2023-04-01T07:26:57.964Z,12.54
2023-04-01T07:29:26.852Z,12.48
2023-04-01T07:32:17.864Z,12.50
2023-04-01T07:34:44.323Z,12.76
2023-04-01T07:37:21.725Z,13.03
2023-04-01T07:40:05.289Z,13.35
2023-04-01T07:43:23.518Z,13.76
2023-04-01T07:46:17.136Z,14.45
2023-04-01T07:49:04.917Z,15.29
2023-04-01T07:51:56.410Z,16.27
2023-04-01T07:54:29.041Z,17.51
2023-04-01T07:57:16.866Z,18.20
2023-04-01T08:00:03.347Z,18.16
2023-04-01T08:03:07.077Z,17.99
2023-04-01T08:05:48.256Z,17.65
2023-04-01T08:08:22.928Z,17.14
2023-04-01T08:11:04.314Z,16.88
2023-04-01T08:13:43.240Z,16.61
2023-04-01T08:16:47.991Z,16.42
2023-04-01T08:19:23.287Z,16.14
2023-04-01T08:21:55.809Z,15.96
2023-04-01T08:24:44.374Z,15.57
2023-04-01T08:27:36.863Z,15.14
2023-04-01T08:30:03.421Z,14.73
2023-04-01T08:32:37.615Z,14.42
2023-04-01T08:35:34.824Z,14.12
2023-04-01T08:38:26.260Z,13.89
2023-04-01T08:41:00.375Z,13.79
2023-04-01T08:44:00.498Z,13.77
2023-04-01T08:46:47.793Z,13.72
2023-04-01T08:49:34.008Z,13.69
2023-04-01T08:52:19.108Z,13.72
2023-04-01T08:55:03.791Z,14.08
2023-04-01T08:57:42.229Z,14.75
2023-04-01T09:00:11.418Z,15.23
2023-04-01T09:03:20.400Z,15.34
2023-04-01T09:06:25.412Z,15.43
2023-04-01T09:09:01.067Z,15.46
2023-04-01T09:11:46.699Z,15.38
2023-04-01T09:14:28.676Z,15.18
2023-04-01T09:17:44.360Z,14.87
2023-04-01T09:20:29.253Z,14.61
2023-04-01T09:23:23.743Z,14.41
2023-04-01T09:26:24.382Z,14.21
2023-04-01T09:29:09.658Z,14.04
2023-04-01T09:31:58.366Z,13.89
2023-04-01T09:34:52.513Z,14.01
2023-04-01T09:37:21.331Z,14.18
2023-04-01T09:40:15.047Z,14.33
2023-04-01T09:43:17.593Z,14.57
2023-04-01T09:46:02.854Z,14.83
2023-04-01T09:48:58.641Z,15.11
2023-04-01T09:51:36.755Z,15.38
2023-04-01T09:54:12.005Z,15.50
2023-04-01T09:57:20.763Z,15.50
2023-04-01T09:59:50.668Z,15.55
2023-04-01T10:02:44.372Z,15.30
2023-04-01T10:05:23.202Z,14.87
2023-04-01T10:08:17.222Z,14.31
2023-04-01T10:10:52.884Z,13.56
2023-04-01T10:13:22.076Z,13.22
2023-04-01T10:16:00.796Z,13.03
2023-04-01T10:18:40.856Z,12.79
2023-04-01T10:21:32.240Z,12.43
2023-04-01T10:24:25.246Z,12.28
2023-04-01T10:27:13.416Z,12.42
2023-04-01T10:29:52.045Z,12.70
2023-04-01T10:32:50.011Z,13.04
2023-04-01T10:35:38.895Z,13.71
2023-04-01T10:38:26.819Z,14.31
2023-04-01T10:41:22.164Z,14.69
2023-04-01T10:44:20.847Z,15.08
2023-04-01T10:46:59.480Z,15.19
2023-04-01T10:50:11.087Z,15.41
2023-04-01T10:52:50.942Z,15.32
2023-04-01T10:55:50.705Z,15.22
2023-04-01T10:58:42.340Z,15.21
2023-04-01T11:02:03.999Z,15.12
2023-04-01T11:04:56.676Z,14.87
2023-04-01T11:08:02.866Z,14.46
2023-04-01T11:11:10.230Z,13.93
2023-04-01T11:14:18.097Z,13.34
2023-04-01T11:16:56.623Z,12.88
2023-04-01T11:19:47.916Z,12.67
2023-04-01T11:22:30.356Z,12.62
2023-04-01T11:25:02.854Z,12.72
2023-04-01T11:27:47.605Z,12.91
2023-04-01T11:30:29.629Z,13.07
2023-04-01T11:33:17.388Z,13.38
2023-04-01T11:36:19.633Z,13.80
2023-04-01T11:38:54.993Z,14.22
2023-04-01T11:41:44.843Z,14.60
2023-04-01T11:44:19.436Z,15.11
2023-04-01T11:47:11.606Z,15.53
2023-04-01T11:49:43.952Z,15.74
2023-04-01T11:52:42.981Z,16.01
2023-04-01T11:55:36.296Z,16.23
2023-04-01T11:58:12.373Z,16.04
2023-04-01T12:00:56.994Z,15.54
2023-04-01T12:04:01.526Z,15.14
2023-04-01T12:06:55.640Z,14.97
2023-04-01T12:09:34.749Z,14.75
2023-04-01T12:12:16.770Z,14.36
2023-04-01T12:15:01.510Z,13.91
2023-04-01T12:17:46.204Z,13.65
2023-04-01T12:20:12.872Z,13.55
2023-04-01T12:22:47.087Z,13.61
2023-04-01T12:25:22.872Z,13.76
2023-04-01T12:28:18.839Z,13.93
2023-04-01T12:30:55.281Z,14.05
2023-04-01T12:33:53.599Z,14.17
2023-04-01T12:36:57.751Z,14.18
2023-04-01T12:39:45.368Z,14.24
2023-04-01T12:42:52.873Z,14.32
2023-04-01T12:45:34.399Z,14.56
2023-04-01T12:48:28.971Z,14.71
2023-04-01T12:51:25.112Z,14.81
2023-04-01T12:54:33.467Z,14.81
2023-04-01T12:57:15.117Z,14.67
2023-04-01T13:00:05.929Z,14.59
2023-04-01T13:02:38.831Z,14.66
2023-04-01T13:05:41.176Z,14.93
2023-04-01T13:08:44.180Z,15.38
2023-04-01T13:11:42.609Z,15.81
2023-04-01T13:14:31.939Z,15.94
2023-04-01T13:17:16.665Z,16.05
2023-04-01T13:20:01.990Z,16.23
2023-04-01T13:22:58.209Z,16.31
2023-04-01T13:26:13.622Z,16.19
2023-04-01T13:28:48.843Z,16.14
2023-04-01T13:32:05.621Z,16.22
2023-04-01T13:34:35.023Z,16.30
2023-04-01T13:37:12.349Z,16.19
2023-04-01T13:39:41.507Z,16.05
2023-04-01T13:42:19.868Z,15.83
2023-04-01T13:45:15.660Z,15.62
2023-04-01T13:48:04.246Z,15.36
2023-04-01T13:50:55.448Z,15.32
2023-04-01T13:53:56.500Z,15.27
2023-04-01T13:56:39.380Z,15.23
2023-04-01T13:59:16.336Z,15.23
2023-04-01T14:01:49.145Z,15.19
2023-04-01T14:04:21.713Z,15.30
2023-04-01T14:07:10.192Z,15.28
2023-04-01T14:09:53.099Z,15.37
2023-04-01T14:12:31.072Z,15.42
2023-04-01T14:15:28.620Z,15.52
2023-04-01T14:18:07.120Z,15.57
2023-04-01T14:20:41.701Z,15.68
2023-04-01T14:23:46.339Z,15.76
2023-04-01T14:26:28.426Z,15.83
2023-04-01T14:29:23.745Z,15.85
2023-04-01T14:32:14.755Z,15.87
2023-04-01T14:35:00.675Z,15.88
2023-04-01T14:37:41.847Z,15.75
2023-04-01T14:40:28.284Z,15.67
2023-04-01T14:43:07.053Z,15.68
2023-04-01T14:45:46.545Z,15.65
2023-04-01T14:48:45.513Z,16.31
2023-04-01T14:51:17.820Z,16.76
2023-04-01T14:54:07.122Z,16.40
2023-04-01T14:57:09.288Z,15.80
2023-04-01T14:59:42.131Z,15.46
2023-04-01T15:02:27.154Z,15.43
2023-04-01T15:05:08.853Z,15.65
2023-04-01T15:07:54.265Z,16.17
2023-04-01T15:10:45.851Z,16.60
2023-04-01T15:13:38.816Z,16.36
2023-04-01T15:16:30.493Z,15.96
2023-04-01T15:19:21.856Z,15.46
2023-04-01T15:22:06.726Z,14.94
2023-04-01T15:24:53.798Z,14.47
2023-04-01T15:27:42.993Z,14.15
2023-04-01T15:30:19.382Z,13.85
2023-04-01T15:33:01.330Z,13.59
2023-04-01T15:36:14.020Z,13.33
2023-04-01T15:39:13.228Z,13.14
2023-04-01T15:42:02.790Z,12.98
2023-04-01T15:44:47.756Z,12.90
2023-04-01T15:47:25.728Z,12.86
2023-04-01T15:49:56.597Z,12.80
2023-04-01T15:52:38.607Z,12.68
2023-04-01T15:55:40.620Z,12.58
2023-04-01T15:58:40.438Z,12.63
2023-04-01T16:01:17.694Z,12.72
2023-04-01T16:04:09.134Z,12.75
2023-04-01T16:06:54.280Z,12.73
2023-04-01T16:09:59.051Z,12.66
2023-04-01T16:12:25.634Z,12.57
2023-04-01T16:15:19.261Z,12.49
2023-04-01T16:17:45.783Z,12.39
2023-04-01T16:20:15.336Z,12.32
2023-04-01T16:22:54.803Z,12.24
2023-04-01T16:25:33.087Z,12.17
2023-04-01T16:28:27.145Z,12.10
2023-04-01T16:31:18.610Z,12.05
2023-04-01T16:34:16.014Z,11.99
2023-04-01T16:37:01.548Z,11.92
2023-04-01T16:39:46.700Z,11.85
2023-04-01T16:42:39.964Z,11.79
2023-04-01T16:45:09.599Z,11.73
2023-04-01T16:47:52.362Z,11.67
2023-04-01T16:50:23.515Z,11.63
2023-04-01T16:52:55.631Z,11.59
2023-04-01T16:55:25.996Z,11.56
2023-04-01T16:58:02.481Z,11.53
2023-04-01T17:00:40.652Z,11.49
2023-04-01T17:03:24.872Z,11.45
2023-04-01T17:06:34.938Z,11.40
2023-04-01T17:09:21.800Z,11.36
2023-04-01T17:12:26.488Z,11.32
2023-04-01T17:15:11.146Z,11.30
2023-04-01T17:17:59.841Z,11.26
2023-04-01T17:20:26.338Z,11.21
2023-04-01T17:23:01.164Z,11.17
2023-04-01T17:25:45.922Z,11.12
2023-04-01T17:28:29.719Z,11.07
2023-04-01T17:31:11.925Z,11.03
2023-04-01T17:33:51.799Z,10.98
2023-04-01T17:36:30.577Z,10.93
2023-04-01T17:39:19.141Z,10.90
2023-04-01T17:42:07.315Z,10.88
2023-04-01T17:45:05.224Z,10.84
2023-04-01T17:47:53.482Z,10.82
2023-04-01T17:50:24.750Z,10.80
2023-04-01T17:53:00.124Z,10.81
2023-04-01T17:55:38.805Z,10.80
2023-04-01T17:58:20.710Z,10.79
2023-04-01T18:01:06.898Z,10.77
2023-04-01T18:04:07.560Z,10.75
2023-04-01T18:07:06.466Z,10.73
2023-04-01T18:10:02.246Z,10.70
2023-04-01T18:12:34.617Z,10.68
2023-04-01T18:15:11.984Z,10.68
2023-04-01T18:18:03.499Z,10.68
2023-04-01T18:20:49.001Z,10.70
2023-04-01T18:23:37.487Z,10.69
2023-04-01T18:26:11.259Z,10.37
2023-04-01T18:28:43.255Z,9.75
2023-04-01T18:31:12.693Z,9.36
2023-04-01T18:34:07.463Z,9.06
2023-04-01T18:36:45.195Z,8.71
2023-04-01T18:39:23.080Z,8.50
2023-04-01T18:42:29.466Z,8.37
2023-04-01T18:45:07.912Z,8.26
2023-04-01T18:48:05.028Z,8.20
2023-04-01T18:51:11.421Z,8.12
2023-04-01T18:53:53.714Z,8.05
2023-04-01T18:56:35.316Z,7.98
2023-04-01T18:59:23.708Z,7.95
2023-04-01T19:02:16.891Z,7.92
2023-04-01T19:04:51.744Z,7.88
2023-04-01T19:07:21.054Z,7.88
2023-04-01T19:09:49.661Z,7.87
2023-04-01T19:12:29.851Z,7.84
2023-04-01T19:15:23.609Z,7.82
2023-04-01T19:18:03.223Z,7.81
2023-04-01T19:20:47.558Z,7.79
2023-04-01T19:23:27.391Z,7.78
2023-04-01T19:26:00.872Z,7.78
2023-04-01T19:28:44.430Z,7.79
2023-04-01T19:31:29.609Z,7.80
2023-04-01T19:34:17.144Z,7.83
2023-04-01T19:36:57.579Z,7.85
